sensor_id;sensor_type;location;lat;lon;timestamp;temperature;humidity
21568;DHT22;10944;42.590;12.630;2023-04-30T00:01:05;15.30;99.90
21568;DHT22;10944;42.590;12.630;2023-04-30T00:03:31;15.30;99.90
21568;DHT22;10944;42.590;12.630;2023-04-30T00:05:56;15.30;99.90
21568;DHT22;10944;42.590;12.630;2023-04-30T00:08:22;15.20;99.90
21568;DHT22;10944;42.590;12.630;2023-04-30T00:10:48;15.20;99.90
21568;DHT22;10944;42.590;12.630;2023-04-30T00:13:14;15.20;99.90
21568;DHT22;10944;42.590;12.630;2023-04-30T00:15:40;15.20;99.90
21568;DHT22;10944;42.590;12.630;2023-04-30T00:18:08;15.20;99.90
21568;DHT22;10944;42.590;12.630;2023-04-30T00:20:33;15.20;99.90
21568;DHT22;10944;42.590;12.630;2023-04-30T00:23:00;15.10;99.90
21568;DHT22;10944;42.590;12.630;2023-04-30T00:25:25;15.10;99.90
21568;DHT22;10944;42.590;12.630;2023-04-30T00:27:51;15.10;99.90
21568;DHT22;10944;42.590;12.630;2023-04-30T00:30:17;15.10;99.90
21568;DHT22;10944;42.590;12.630;2023-04-30T00:32:43;15.10;99.90
21568;DHT22;10944;42.590;12.630;2023-04-30T00:35:10;15.00;99.90
21568;DHT22;10944;42.590;12.630;2023-04-30T00:37:36;15.00;99.90
21568;DHT22;10944;42.590;12.630;2023-04-30T00:40:02;15.00;99.90
21568;DHT22;10944;42.590;12.630;2023-04-30T00:42:27;15.00;99.90
21568;DHT22;10944;42.590;12.630;2023-04-30T00:44:53;14.90;99.90
21568;DHT22;10944;42.590;12.630;2023-04-30T00:47:19;14.90;99.90
21568;DHT22;10944;42.590;12.630;2023-04-30T00:49:45;14.90;99.90
21568;DHT22;10944;42.590;12.630;2023-04-30T00:52:10;14.90;99.90
21568;DHT22;10944;42.590;12.630;2023-04-30T00:54:37;14.90;99.90
21568;DHT22;10944;42.590;12.630;2023-04-30T00:57:04;14.90;99.90
21568;DHT22;10944;42.590;12.630;2023-04-30T00:59:32;14.80;99.90
21568;DHT22;10944;42.590;12.630;2023-04-30T01:01:58;14.80;99.90
21568;DHT22;10944;42.590;12.630;2023-04-30T01:04:23;14.80;99.90
21568;DHT22;10944;42.590;12.630;2023-04-30T01:06:49;14.80;99.90
21568;DHT22;10944;42.590;12.630;2023-04-30T01:09:15;14.80;99.90
21568;DHT22;10944;42.590;12.630;2023-04-30T01:12:01;14.70;99.90
21568;DHT22;10944;42.590;12.630;2023-04-30T01:17:47;14.70;99.90
21568;DHT22;10944;42.590;12.630;2023-04-30T01:20:16;14.70;99.90
21568;DHT22;10944;42.590;12.630;2023-04-30T01:22:45;14.70;99.90
21568;DHT22;10944;42.590;12.630;2023-04-30T01:28:02;14.60;99.90
21568;DHT22;10944;42.590;12.630;2023-04-30T01:30:30;14.60;99.90
21568;DHT22;10944;42.590;12.630;2023-04-30T01:32:57;14.60;99.90
21568;DHT22;10944;42.590;12.630;2023-04-30T01:35:58;14.60;99.90
21568;DHT22;10944;42.590;12.630;2023-04-30T01:38:32;14.50;99.90
21568;DHT22;10944;42.590;12.630;2023-04-30T01:43:49;14.50;99.90
21568;DHT22;10944;42.590;12.630;2023-04-30T01:46:24;14.50;99.90
21568;DHT22;10944;42.590;12.630;2023-04-30T01:52:17;14.50;99.90
21568;DHT22;10944;42.590;12.630;2023-04-30T01:54:54;14.50;99.90
21568;DHT22;10944;42.590;12.630;2023-04-30T01:57:56;14.50;99.90
21568;DHT22;10944;42.590;12.630;2023-04-30T02:00:27;14.50;99.90
21568;DHT22;10944;42.590;12.630;2023-04-30T02:02:53;14.50;99.90
21568;DHT22;10944;42.590;12.630;2023-04-30T02:05:18;14.50;99.90
21568;DHT22;10944;42.590;12.630;2023-04-30T02:07:45;14.50;99.90
21568;DHT22;10944;42.590;12.630;2023-04-30T02:10:14;14.50;99.90
21568;DHT22;10944;42.590;12.630;2023-04-30T02:12:40;14.50;99.90
21568;DHT22;10944;42.590;12.630;2023-04-30T02:15:06;14.50;99.90
21568;DHT22;10944;42.590;12.630;2023-04-30T02:17:32;14.40;99.90
21568;DHT22;10944;42.590;12.630;2023-04-30T02:19:58;14.40;99.90
21568;DHT22;10944;42.590;12.630;2023-04-30T02:22:24;14.40;99.90
21568;DHT22;10944;42.590;12.630;2023-04-30T02:24:50;14.40;99.90
21568;DHT22;10944;42.590;12.630;2023-04-30T02:27:18;14.40;99.90
21568;DHT22;10944;42.590;12.630;2023-04-30T02:29:44;14.30;99.90
21568;DHT22;10944;42.590;12.630;2023-04-30T02:32:10;14.30;99.90
21568;DHT22;10944;42.590;12.630;2023-04-30T02:34:35;14.30;99.90
21568;DHT22;10944;42.590;12.630;2023-04-30T02:37:01;14.30;99.90
21568;DHT22;10944;42.590;12.630;2023-04-30T02:39:27;14.20;99.90
21568;DHT22;10944;42.590;12.630;2023-04-30T02:41:53;14.10;99.90
21568;DHT22;10944;42.590;12.630;2023-04-30T02:44:18;14.00;99.90
21568;DHT22;10944;42.590;12.630;2023-04-30T02:46:44;13.90;99.90
21568;DHT22;10944;42.590;12.630;2023-04-30T02:49:10;13.80;99.90
21568;DHT22;10944;42.590;12.630;2023-04-30T02:51:36;13.80;99.90
21568;DHT22;10944;42.590;12.630;2023-04-30T02:54:01;13.70;99.90
21568;DHT22;10944;42.590;12.630;2023-04-30T02:56:27;13.70;99.90
21568;DHT22;10944;42.590;12.630;2023-04-30T02:58:53;13.70;99.90
21568;DHT22;10944;42.590;12.630;2023-04-30T03:01:20;13.70;99.90
21568;DHT22;10944;42.590;12.630;2023-04-30T03:03:45;13.70;99.90
21568;DHT22;10944;42.590;12.630;2023-04-30T03:06:11;13.70;99.90
21568;DHT22;10944;42.590;12.630;2023-04-30T03:08:37;13.60;99.90
21568;DHT22;10944;42.590;12.630;2023-04-30T03:11:02;13.60;99.90
21568;DHT22;10944;42.590;12.630;2023-04-30T03:13:28;13.60;99.90
21568;DHT22;10944;42.590;12.630;2023-04-30T03:18:24;13.50;99.90
21568;DHT22;10944;42.590;12.630;2023-04-30T03:20:49;13.50;99.90
21568;DHT22;10944;42.590;12.630;2023-04-30T03:23:15;13.50;99.90
21568;DHT22;10944;42.590;12.630;2023-04-30T03:25:41;13.50;99.90
21568;DHT22;10944;42.590;12.630;2023-04-30T03:28:07;13.50;99.90
21568;DHT22;10944;42.590;12.630;2023-04-30T03:30:32;13.50;99.90
21568;DHT22;10944;42.590;12.630;2023-04-30T03:32:58;13.50;99.90
21568;DHT22;10944;42.590;12.630;2023-04-30T03:35:24;13.50;99.90
21568;DHT22;10944;42.590;12.630;2023-04-30T03:37:49;13.50;99.90
21568;DHT22;10944;42.590;12.630;2023-04-30T03:40:15;13.50;99.90
21568;DHT22;10944;42.590;12.630;2023-04-30T03:42:41;13.60;99.90
21568;DHT22;10944;42.590;12.630;2023-04-30T03:45:07;13.70;99.90
21568;DHT22;10944;42.590;12.630;2023-04-30T03:47:34;13.70;99.90
21568;DHT22;10944;42.590;12.630;2023-04-30T03:50:00;13.70;99.90
21568;DHT22;10944;42.590;12.630;2023-04-30T03:52:26;13.70;99.90
21568;DHT22;10944;42.590;12.630;2023-04-30T03:54:52;13.70;99.90
21568;DHT22;10944;42.590;12.630;2023-04-30T03:57:18;13.70;99.90
21568;DHT22;10944;42.590;12.630;2023-04-30T03:59:43;13.70;99.90
21568;DHT22;10944;42.590;12.630;2023-04-30T04:02:09;13.60;99.90
21568;DHT22;10944;42.590;12.630;2023-04-30T04:04:35;13.60;99.90
21568;DHT22;10944;42.590;12.630;2023-04-30T04:07:01;13.60;99.90
21568;DHT22;10944;42.590;12.630;2023-04-30T04:09:28;13.50;99.90
21568;DHT22;10944;42.590;12.630;2023-04-30T04:11:54;13.40;99.90
21568;DHT22;10944;42.590;12.630;2023-04-30T04:14:20;13.30;99.90
21568;DHT22;10944;42.590;12.630;2023-04-30T04:16:45;13.20;99.90
21568;DHT22;10944;42.590;12.630;2023-04-30T04:19:11;13.30;99.90
21568;DHT22;10944;42.590;12.630;2023-04-30T04:21:38;13.30;99.90
21568;DHT22;10944;42.590;12.630;2023-04-30T04:24:03;13.30;99.90
21568;DHT22;10944;42.590;12.630;2023-04-30T04:26:36;13.30;99.90
21568;DHT22;10944;42.590;12.630;2023-04-30T04:29:05;13.30;99.90
21568;DHT22;10944;42.590;12.630;2023-04-30T04:31:33;13.30;99.90
21568;DHT22;10944;42.590;12.630;2023-04-30T04:33:59;13.20;99.90
21568;DHT22;10944;42.590;12.630;2023-04-30T04:36:28;13.20;99.90
21568;DHT22;10944;42.590;12.630;2023-04-30T04:38:55;13.20;99.90
21568;DHT22;10944;42.590;12.630;2023-04-30T04:41:30;13.20;99.90
21568;DHT22;10944;42.590;12.630;2023-04-30T04:44:00;13.30;99.90
21568;DHT22;10944;42.590;12.630;2023-04-30T04:46:30;13.40;99.90
21568;DHT22;10944;42.590;12.630;2023-04-30T04:48:57;13.60;99.90
21568;DHT22;10944;42.590;12.630;2023-04-30T04:51:23;13.70;99.90
21568;DHT22;10944;42.590;12.630;2023-04-30T04:53:49;13.70;99.90
21568;DHT22;10944;42.590;12.630;2023-04-30T04:56:14;13.80;99.90
21568;DHT22;10944;42.590;12.630;2023-04-30T04:58:41;13.90;99.90
21568;DHT22;10944;42.590;12.630;2023-04-30T05:01:07;13.90;99.90
21568;DHT22;10944;42.590;12.630;2023-04-30T05:03:34;13.90;99.90
21568;DHT22;10944;42.590;12.630;2023-04-30T05:06:03;14.00;99.90
21568;DHT22;10944;42.590;12.630;2023-04-30T05:08:29;14.00;99.90
21568;DHT22;10944;42.590;12.630;2023-04-30T05:10:55;14.10;99.90
21568;DHT22;10944;42.590;12.630;2023-04-30T05:13:20;14.10;99.90
21568;DHT22;10944;42.590;12.630;2023-04-30T05:15:49;14.20;99.90
21568;DHT22;10944;42.590;12.630;2023-04-30T05:18:15;14.30;99.90
21568;DHT22;10944;42.590;12.630;2023-04-30T05:20:41;14.40;99.90
21568;DHT22;10944;42.590;12.630;2023-04-30T05:23:07;14.50;99.90
21568;DHT22;10944;42.590;12.630;2023-04-30T05:25:32;14.60;99.90
21568;DHT22;10944;42.590;12.630;2023-04-30T05:27:59;14.70;99.90
21568;DHT22;10944;42.590;12.630;2023-04-30T05:30:25;14.80;99.90
21568;DHT22;10944;42.590;12.630;2023-04-30T05:32:51;14.90;99.90
21568;DHT22;10944;42.590;12.630;2023-04-30T05:35:17;14.90;99.90
21568;DHT22;10944;42.590;12.630;2023-04-30T05:37:44;14.90;99.90
21568;DHT22;10944;42.590;12.630;2023-04-30T05:40:10;15.00;99.90
21568;DHT22;10944;42.590;12.630;2023-04-30T05:42:37;15.00;99.90
21568;DHT22;10944;42.590;12.630;2023-04-30T05:45:06;15.10;99.90
21568;DHT22;10944;42.590;12.630;2023-04-30T05:47:32;15.20;99.90
21568;DHT22;10944;42.590;12.630;2023-04-30T05:49:57;15.30;99.90
21568;DHT22;10944;42.590;12.630;2023-04-30T05:52:23;15.40;99.90
21568;DHT22;10944;42.590;12.630;2023-04-30T05:54:49;15.50;99.90
21568;DHT22;10944;42.590;12.630;2023-04-30T05:57:15;15.60;99.90
21568;DHT22;10944;42.590;12.630;2023-04-30T05:59:40;15.70;99.90
21568;DHT22;10944;42.590;12.630;2023-04-30T06:02:06;15.70;99.90
21568;DHT22;10944;42.590;12.630;2023-04-30T06:04:32;15.60;99.90
21568;DHT22;10944;42.590;12.630;2023-04-30T06:06:58;15.60;99.90
21568;DHT22;10944;42.590;12.630;2023-04-30T06:09:24;15.60;99.90
21568;DHT22;10944;42.590;12.630;2023-04-30T06:11:49;15.60;99.90
21568;DHT22;10944;42.590;12.630;2023-04-30T06:14:17;15.60;99.90
21568;DHT22;10944;42.590;12.630;2023-04-30T06:16:45;15.60;99.90
21568;DHT22;10944;42.590;12.630;2023-04-30T06:19:11;15.60;99.90
21568;DHT22;10944;42.590;12.630;2023-04-30T06:21:37;15.60;99.90
21568;DHT22;10944;42.590;12.630;2023-04-30T06:24:03;15.60;99.90
21568;DHT22;10944;42.590;12.630;2023-04-30T06:26:29;15.70;99.90
21568;DHT22;10944;42.590;12.630;2023-04-30T06:28:55;15.70;99.90
21568;DHT22;10944;42.590;12.630;2023-04-30T06:31:21;15.70;99.90
21568;DHT22;10944;42.590;12.630;2023-04-30T06:33:47;15.80;99.90
21568;DHT22;10944;42.590;12.630;2023-04-30T06:36:13;15.80;99.90
21568;DHT22;10944;42.590;12.630;2023-04-30T06:38:39;15.90;99.90
21568;DHT22;10944;42.590;12.630;2023-04-30T06:41:05;15.90;99.90
21568;DHT22;10944;42.590;12.630;2023-04-30T06:43:31;16.00;99.90
21568;DHT22;10944;42.590;12.630;2023-04-30T06:45:57;16.00;99.90
21568;DHT22;10944;42.590;12.630;2023-04-30T06:48:22;16.00;99.90
21568;DHT22;10944;42.590;12.630;2023-04-30T06:50:48;16.10;99.90
21568;DHT22;10944;42.590;12.630;2023-04-30T06:53:14;16.10;99.90
21568;DHT22;10944;42.590;12.630;2023-04-30T06:55:44;16.10;99.90
21568;DHT22;10944;42.590;12.630;2023-04-30T06:58:11;16.10;99.90
21568;DHT22;10944;42.590;12.630;2023-04-30T07:00:37;16.30;99.90
21568;DHT22;10944;42.590;12.630;2023-04-30T07:03:02;16.30;99.90
21568;DHT22;10944;42.590;12.630;2023-04-30T07:05:32;16.30;99.90
21568;DHT22;10944;42.590;12.630;2023-04-30T07:08:00;16.40;99.90
21568;DHT22;10944;42.590;12.630;2023-04-30T07:10:26;16.40;99.90
21568;DHT22;10944;42.590;12.630;2023-04-30T07:12:52;16.40;99.90
21568;DHT22;10944;42.590;12.630;2023-04-30T07:15:18;16.40;99.90
21568;DHT22;10944;42.590;12.630;2023-04-30T07:17:44;16.40;99.90
21568;DHT22;10944;42.590;12.630;2023-04-30T07:20:10;16.40;99.90
21568;DHT22;10944;42.590;12.630;2023-04-30T07:22:36;16.50;99.90
21568;DHT22;10944;42.590;12.630;2023-04-30T07:25:02;16.50;99.90
21568;DHT22;10944;42.590;12.630;2023-04-30T07:27:28;16.50;99.90
21568;DHT22;10944;42.590;12.630;2023-04-30T07:29:54;16.60;99.90
21568;DHT22;10944;42.590;12.630;2023-04-30T07:32:20;16.70;99.90
21568;DHT22;10944;42.590;12.630;2023-04-30T07:34:46;16.90;99.90
21568;DHT22;10944;42.590;12.630;2023-04-30T07:37:13;16.90;99.90
21568;DHT22;10944;42.590;12.630;2023-04-30T07:39:39;16.90;99.90
21568;DHT22;10944;42.590;12.630;2023-04-30T07:42:05;17.10;99.90
21568;DHT22;10944;42.590;12.630;2023-04-30T07:44:31;17.20;99.90
21568;DHT22;10944;42.590;12.630;2023-04-30T07:46:59;17.30;99.90
21568;DHT22;10944;42.590;12.630;2023-04-30T07:49:25;17.60;99.90
21568;DHT22;10944;42.590;12.630;2023-04-30T07:51:51;17.70;99.90
21568;DHT22;10944;42.590;12.630;2023-04-30T07:54:16;17.80;99.90
21568;DHT22;10944;42.590;12.630;2023-04-30T07:56:42;17.70;99.90
21568;DHT22;10944;42.590;12.630;2023-04-30T07:59:08;17.70;99.90
21568;DHT22;10944;42.590;12.630;2023-04-30T08:01:33;17.90;99.90
21568;DHT22;10944;42.590;12.630;2023-04-30T08:03:59;18.20;99.90
21568;DHT22;10944;42.590;12.630;2023-04-30T08:06:25;18.30;99.90
21568;DHT22;10944;42.590;12.630;2023-04-30T08:08:54;18.40;99.90
21568;DHT22;10944;42.590;12.630;2023-04-30T08:11:20;18.40;99.90
21568;DHT22;10944;42.590;12.630;2023-04-30T08:13:46;18.50;99.90
21568;DHT22;10944;42.590;12.630;2023-04-30T08:16:11;18.60;99.90
21568;DHT22;10944;42.590;12.630;2023-04-30T08:18:37;18.50;99.90
21568;DHT22;10944;42.590;12.630;2023-04-30T08:21:10;18.80;99.90
21568;DHT22;10944;42.590;12.630;2023-04-30T08:23:36;18.90;99.90
21568;DHT22;10944;42.590;12.630;2023-04-30T08:26:01;19.00;99.90
21568;DHT22;10944;42.590;12.630;2023-04-30T08:28:27;19.10;99.90
21568;DHT22;10944;42.590;12.630;2023-04-30T08:30:53;19.10;99.90
21568;DHT22;10944;42.590;12.630;2023-04-30T08:33:19;19.10;99.90
21568;DHT22;10944;42.590;12.630;2023-04-30T08:35:44;19.10;99.90
21568;DHT22;10944;42.590;12.630;2023-04-30T08:38:10;19.30;99.90
21568;DHT22;10944;42.590;12.630;2023-04-30T08:40:36;19.20;99.90
21568;DHT22;10944;42.590;12.630;2023-04-30T08:43:06;19.20;99.90
21568;DHT22;10944;42.590;12.630;2023-04-30T08:45:33;19.30;99.90
21568;DHT22;10944;42.590;12.630;2023-04-30T08:48:00;19.40;99.90
21568;DHT22;10944;42.590;12.630;2023-04-30T08:50:26;19.50;99.90
21568;DHT22;10944;42.590;12.630;2023-04-30T08:52:53;19.50;99.90
21568;DHT22;10944;42.590;12.630;2023-04-30T08:55:18;19.50;99.90
21568;DHT22;10944;42.590;12.630;2023-04-30T08:57:44;19.60;99.90
21568;DHT22;10944;42.590;12.630;2023-04-30T09:00:10;19.60;99.90
21568;DHT22;10944;42.590;12.630;2023-04-30T09:02:40;19.80;99.90
21568;DHT22;10944;42.590;12.630;2023-04-30T09:05:10;20.00;99.90
21568;DHT22;10944;42.590;12.630;2023-04-30T09:07:42;20.10;99.90
21568;DHT22;10944;42.590;12.630;2023-04-30T09:10:19;20.10;99.90
21568;DHT22;10944;42.590;12.630;2023-04-30T09:13:06;20.20;99.90
21568;DHT22;10944;42.590;12.630;2023-04-30T09:15:33;20.20;99.90
21568;DHT22;10944;42.590;12.630;2023-04-30T09:18:10;20.20;99.90
21568;DHT22;10944;42.590;12.630;2023-04-30T09:20:37;20.30;99.90
21568;DHT22;10944;42.590;12.630;2023-04-30T09:23:08;20.30;99.90
21568;DHT22;10944;42.590;12.630;2023-04-30T09:25:41;20.30;99.90
21568;DHT22;10944;42.590;12.630;2023-04-30T09:28:11;20.40;99.90
21568;DHT22;10944;42.590;12.630;2023-04-30T09:30:38;20.40;99.90
21568;DHT22;10944;42.590;12.630;2023-04-30T09:33:03;20.40;99.90
21568;DHT22;10944;42.590;12.630;2023-04-30T09:35:32;20.40;99.90
21568;DHT22;10944;42.590;12.630;2023-04-30T09:37:59;20.50;99.90
21568;DHT22;10944;42.590;12.630;2023-04-30T09:40:52;20.50;99.90
21568;DHT22;10944;42.590;12.630;2023-04-30T09:43:18;20.70;99.90
21568;DHT22;10944;42.590;12.630;2023-04-30T09:45:45;20.70;99.90
21568;DHT22;10944;42.590;12.630;2023-04-30T09:48:14;20.90;99.90
21568;DHT22;10944;42.590;12.630;2023-04-30T09:50:41;21.00;99.90
21568;DHT22;10944;42.590;12.630;2023-04-30T09:53:09;21.00;99.90
21568;DHT22;10944;42.590;12.630;2023-04-30T09:55:35;20.90;99.90
21568;DHT22;10944;42.590;12.630;2023-04-30T09:58:09;20.90;99.90
21568;DHT22;10944;42.590;12.630;2023-04-30T10:00:36;21.00;99.90
21568;DHT22;10944;42.590;12.630;2023-04-30T10:03:10;21.30;99.90
21568;DHT22;10944;42.590;12.630;2023-04-30T10:05:40;21.20;99.90
21568;DHT22;10944;42.590;12.630;2023-04-30T10:08:11;21.10;99.90
21568;DHT22;10944;42.590;12.630;2023-04-30T10:10:39;21.10;99.90
21568;DHT22;10944;42.590;12.630;2023-04-30T10:13:10;21.40;99.90
21568;DHT22;10944;42.590;12.630;2023-04-30T10:15:42;21.50;99.90
21568;DHT22;10944;42.590;12.630;2023-04-30T10:18:20;21.50;99.90
21568;DHT22;10944;42.590;12.630;2023-04-30T10:20:48;21.40;99.90
21568;DHT22;10944;42.590;12.630;2023-04-30T10:23:15;21.50;99.90
21568;DHT22;10944;42.590;12.630;2023-04-30T10:25:41;21.70;99.90
21568;DHT22;10944;42.590;12.630;2023-04-30T10:28:08;21.90;99.90
21568;DHT22;10944;42.590;12.630;2023-04-30T10:30:35;22.10;99.90
21568;DHT22;10944;42.590;12.630;2023-04-30T10:36:00;22.10;99.90
21568;DHT22;10944;42.590;12.630;2023-04-30T10:38:29;22.20;99.90
21568;DHT22;10944;42.590;12.630;2023-04-30T10:40:58;21.90;99.90
21568;DHT22;10944;42.590;12.630;2023-04-30T10:43:26;22.10;99.90
21568;DHT22;10944;42.590;12.630;2023-04-30T10:45:56;22.00;99.90
21568;DHT22;10944;42.590;12.630;2023-04-30T10:48:23;22.10;99.90
21568;DHT22;10944;42.590;12.630;2023-04-30T10:50:59;22.10;99.90
21568;DHT22;10944;42.590;12.630;2023-04-30T10:53:28;22.10;99.90
21568;DHT22;10944;42.590;12.630;2023-04-30T10:58:31;21.90;99.90
21568;DHT22;10944;42.590;12.630;2023-04-30T11:01:07;21.90;99.90
21568;DHT22;10944;42.590;12.630;2023-04-30T11:03:36;22.00;99.90
21568;DHT22;10944;42.590;12.630;2023-04-30T11:06:12;22.30;99.90
21568;DHT22;10944;42.590;12.630;2023-04-30T11:08:42;22.50;99.90
21568;DHT22;10944;42.590;12.630;2023-04-30T11:11:10;22.50;99.90
21568;DHT22;10944;42.590;12.630;2023-04-30T11:13:40;22.20;99.90
21568;DHT22;10944;42.590;12.630;2023-04-30T11:16:08;22.20;99.90
21568;DHT22;10944;42.590;12.630;2023-04-30T11:18:43;22.30;99.90
21568;DHT22;10944;42.590;12.630;2023-04-30T11:21:10;22.40;99.90
21568;DHT22;10944;42.590;12.630;2023-04-30T11:23:36;22.50;99.90
21568;DHT22;10944;42.590;12.630;2023-04-30T11:26:06;22.60;99.90
21568;DHT22;10944;42.590;12.630;2023-04-30T11:28:32;22.60;99.90
21568;DHT22;10944;42.590;12.630;2023-04-30T11:31:00;22.50;99.90
21568;DHT22;10944;42.590;12.630;2023-04-30T11:33:30;22.40;99.90
21568;DHT22;10944;42.590;12.630;2023-04-30T11:35:57;22.50;99.90
21568;DHT22;10944;42.590;12.630;2023-04-30T11:38:33;22.50;99.90
21568;DHT22;10944;42.590;12.630;2023-04-30T11:41:00;22.60;99.90
21568;DHT22;10944;42.590;12.630;2023-04-30T11:43:28;22.70;99.80
21568;DHT22;10944;42.590;12.630;2023-04-30T11:46:11;22.60;99.90
21568;DHT22;10944;42.590;12.630;2023-04-30T11:48:38;22.40;99.90
21568;DHT22;10944;42.590;12.630;2023-04-30T11:51:21;22.10;99.10
21568;DHT22;10944;42.590;12.630;2023-04-30T11:53:48;22.00;99.90
21568;DHT22;10944;42.590;12.630;2023-04-30T11:56:21;21.80;99.90
21568;DHT22;10944;42.590;12.630;2023-04-30T11:58:50;21.70;99.90
21568;DHT22;10944;42.590;12.630;2023-04-30T12:01:17;21.60;99.90
21568;DHT22;10944;42.590;12.630;2023-04-30T12:03:47;21.50;99.90
21568;DHT22;10944;42.590;12.630;2023-04-30T12:06:29;21.20;99.90
21568;DHT22;10944;42.590;12.630;2023-04-30T12:08:56;21.20;99.90
21568;DHT22;10944;42.590;12.630;2023-04-30T12:11:24;21.20;99.90
21568;DHT22;10944;42.590;12.630;2023-04-30T12:13:54;21.10;99.90
21568;DHT22;10944;42.590;12.630;2023-04-30T12:16:20;21.00;99.90
21568;DHT22;10944;42.590;12.630;2023-04-30T12:18:46;21.10;99.90
21568;DHT22;10944;42.590;12.630;2023-04-30T12:21:12;21.10;99.90
21568;DHT22;10944;42.590;12.630;2023-04-30T12:23:39;21.10;99.90
21568;DHT22;10944;42.590;12.630;2023-04-30T12:26:04;21.00;99.90
21568;DHT22;10944;42.590;12.630;2023-04-30T12:28:30;20.90;99.90
21568;DHT22;10944;42.590;12.630;2023-04-30T12:30:56;20.90;99.90
21568;DHT22;10944;42.590;12.630;2023-04-30T12:33:22;20.90;99.90
21568;DHT22;10944;42.590;12.630;2023-04-30T12:35:47;20.90;99.90
21568;DHT22;10944;42.590;12.630;2023-04-30T12:38:16;20.90;99.90
21568;DHT22;10944;42.590;12.630;2023-04-30T12:40:46;20.80;99.90
21568;DHT22;10944;42.590;12.630;2023-04-30T12:43:14;20.90;99.90
21568;DHT22;10944;42.590;12.630;2023-04-30T12:48:12;20.90;99.90
21568;DHT22;10944;42.590;12.630;2023-04-30T12:50:38;20.90;99.90
21568;DHT22;10944;42.590;12.630;2023-04-30T12:53:06;20.90;99.90
21568;DHT22;10944;42.590;12.630;2023-04-30T12:55:33;20.80;99.90
21568;DHT22;10944;42.590;12.630;2023-04-30T12:58:11;20.70;99.90
21568;DHT22;10944;42.590;12.630;2023-04-30T13:00:47;20.60;99.90
21568;DHT22;10944;42.590;12.630;2023-04-30T13:03:14;20.60;99.90
21568;DHT22;10944;42.590;12.630;2023-04-30T13:05:41;20.60;99.90
21568;DHT22;10944;42.590;12.630;2023-04-30T13:08:06;20.60;99.90
21568;DHT22;10944;42.590;12.630;2023-04-30T13:10:33;20.70;99.90
21568;DHT22;10944;42.590;12.630;2023-04-30T13:12:59;20.70;99.90
21568;DHT22;10944;42.590;12.630;2023-04-30T13:15:25;20.60;99.90
21568;DHT22;10944;42.590;12.630;2023-04-30T13:17:52;20.70;99.90
21568;DHT22;10944;42.590;12.630;2023-04-30T13:20:18;20.70;99.90
21568;DHT22;10944;42.590;12.630;2023-04-30T13:22:44;20.70;99.90
21568;DHT22;10944;42.590;12.630;2023-04-30T13:25:10;20.60;99.90
21568;DHT22;10944;42.590;12.630;2023-04-30T13:27:36;20.50;99.90
21568;DHT22;10944;42.590;12.630;2023-04-30T13:30:02;20.50;99.90
21568;DHT22;10944;42.590;12.630;2023-04-30T13:32:28;20.40;99.90
21568;DHT22;10944;42.590;12.630;2023-04-30T13:34:54;20.30;99.90
21568;DHT22;10944;42.590;12.630;2023-04-30T13:37:21;20.30;99.90
21568;DHT22;10944;42.590;12.630;2023-04-30T13:39:46;20.30;99.90
21568;DHT22;10944;42.590;12.630;2023-04-30T13:42:15;20.30;99.90
21568;DHT22;10944;42.590;12.630;2023-04-30T13:44:41;20.20;99.90
21568;DHT22;10944;42.590;12.630;2023-04-30T13:47:09;20.20;99.90
21568;DHT22;10944;42.590;12.630;2023-04-30T13:49:36;20.20;99.90
21568;DHT22;10944;42.590;12.630;2023-04-30T13:52:04;20.20;99.90
21568;DHT22;10944;42.590;12.630;2023-04-30T13:54:30;20.20;99.90
21568;DHT22;10944;42.590;12.630;2023-04-30T13:56:57;20.20;99.90
21568;DHT22;10944;42.590;12.630;2023-04-30T13:59:24;20.30;99.90
21568;DHT22;10944;42.590;12.630;2023-04-30T14:01:50;20.20;99.90
21568;DHT22;10944;42.590;12.630;2023-04-30T14:04:16;20.30;99.90
21568;DHT22;10944;42.590;12.630;2023-04-30T14:06:42;20.30;99.90
21568;DHT22;10944;42.590;12.630;2023-04-30T14:09:08;20.30;99.90
21568;DHT22;10944;42.590;12.630;2023-04-30T14:11:33;20.30;99.90
21568;DHT22;10944;42.590;12.630;2023-04-30T14:13:59;20.20;99.90
21568;DHT22;10944;42.590;12.630;2023-04-30T14:16:25;20.20;99.90
21568;DHT22;10944;42.590;12.630;2023-04-30T14:18:51;20.20;99.90
21568;DHT22;10944;42.590;12.630;2023-04-30T14:21:17;20.20;99.90
21568;DHT22;10944;42.590;12.630;2023-04-30T14:23:42;20.20;99.90
21568;DHT22;10944;42.590;12.630;2023-04-30T14:26:11;20.10;99.90
21568;DHT22;10944;42.590;12.630;2023-04-30T14:28:37;20.10;99.90
21568;DHT22;10944;42.590;12.630;2023-04-30T14:31:03;20.10;99.90
21568;DHT22;10944;42.590;12.630;2023-04-30T14:33:32;20.00;99.90
21568;DHT22;10944;42.590;12.630;2023-04-30T14:35:58;20.00;99.90
21568;DHT22;10944;42.590;12.630;2023-04-30T14:38:27;19.90;99.90
21568;DHT22;10944;42.590;12.630;2023-04-30T14:40:52;19.70;99.90
21568;DHT22;10944;42.590;12.630;2023-04-30T14:43:18;19.70;99.90
21568;DHT22;10944;42.590;12.630;2023-04-30T14:45:44;19.70;99.90
21568;DHT22;10944;42.590;12.630;2023-04-30T14:48:13;19.60;99.90
21568;DHT22;10944;42.590;12.630;2023-04-30T14:50:39;19.60;99.90
21568;DHT22;10944;42.590;12.630;2023-04-30T14:53:05;19.50;99.90
21568;DHT22;10944;42.590;12.630;2023-04-30T14:55:31;19.40;99.90
21568;DHT22;10944;42.590;12.630;2023-04-30T14:57:57;19.40;99.90
21568;DHT22;10944;42.590;12.630;2023-04-30T15:00:23;19.30;99.90
21568;DHT22;10944;42.590;12.630;2023-04-30T15:02:49;19.30;99.90
21568;DHT22;10944;42.590;12.630;2023-04-30T15:05:15;19.20;99.90
21568;DHT22;10944;42.590;12.630;2023-04-30T15:07:42;19.10;99.90
21568;DHT22;10944;42.590;12.630;2023-04-30T15:10:08;19.10;99.90
21568;DHT22;10944;42.590;12.630;2023-04-30T15:12:35;19.00;99.90
21568;DHT22;10944;42.590;12.630;2023-04-30T15:15:02;19.00;99.90
21568;DHT22;10944;42.590;12.630;2023-04-30T15:17:29;18.90;99.90
21568;DHT22;10944;42.590;12.630;2023-04-30T15:19:59;18.90;99.90
21568;DHT22;10944;42.590;12.630;2023-04-30T15:22:26;18.90;99.90
21568;DHT22;10944;42.590;12.630;2023-04-30T15:24:52;18.90;99.90
21568;DHT22;10944;42.590;12.630;2023-04-30T15:27:19;18.90;99.90
21568;DHT22;10944;42.590;12.630;2023-04-30T15:29:46;18.90;99.90
21568;DHT22;10944;42.590;12.630;2023-04-30T15:32:12;18.90;99.90
21568;DHT22;10944;42.590;12.630;2023-04-30T15:34:41;18.90;99.90
21568;DHT22;10944;42.590;12.630;2023-04-30T15:37:07;18.90;99.90
21568;DHT22;10944;42.590;12.630;2023-04-30T15:39:32;18.90;99.90